createdAt,value
2023-03-16T00:06:25.682Z,4.70
2023-03-16T00:08:58.983Z,4.47
2023-03-16T00:11:27.480Z,4.90
2023-03-16T00:13:59.319Z,4.53
2023-03-16T00:16:27.276Z,4.50
2023-03-16T00:18:54.848Z,4.63
2023-03-16T00:21:36.027Z,4.35
2023-03-16T00:24:04.376Z,4.90
2023-03-16T00:26:32.301Z,4.85
2023-03-16T00:29:00.343Z,4.38
2023-03-16T00:31:28.461Z,4.97
2023-03-16T00:33:56.438Z,4.43
2023-03-16T00:36:24.089Z,4.63
2023-03-16T00:38:55.492Z,4.90
2023-03-16T00:41:26.616Z,4.80
2023-03-16T00:43:54.511Z,4.70
2023-03-16T00:46:27.079Z,4.80
2023-03-16T00:48:57.593Z,4.85
2023-03-16T00:53:54.058Z,4.95
2023-03-16T00:56:23.830Z,4.95
2023-03-16T00:58:57.882Z,4.90
2023-03-16T01:01:26.564Z,4.47
2023-03-16T01:03:59.176Z,4.18
2023-03-16T01:06:26.831Z,4.60
2023-03-16T01:08:58.159Z,5.32
2023-03-16T01:11:26.306Z,4.30
2023-03-16T01:13:54.892Z,4.68
2023-03-16T01:16:23.725Z,4.68
2023-03-16T01:18:54.260Z,4.78
2023-03-16T01:21:23.360Z,4.45
2023-03-16T01:23:54.196Z,4.65
2023-03-16T01:26:25.486Z,4.53
2023-03-16T01:28:55.079Z,4.68
2023-03-16T01:31:24.258Z,4.70
2023-03-16T01:33:52.936Z,4.25
2023-03-16T01:36:23.983Z,4.70
2023-03-16T01:39:00.457Z,4.95
2023-03-16T01:41:35.534Z,4.43
2023-03-16T01:44:03.847Z,5.05
2023-03-16T01:46:32.212Z,4.55
2023-03-16T01:49:24.529Z,4.35
2023-03-16T01:51:59.917Z,4.95
2023-03-16T01:54:34.797Z,4.43
2023-03-16T01:57:08.692Z,4.78
2023-03-16T01:59:49.732Z,4.55
2023-03-16T02:02:20.010Z,4.35
2023-03-16T02:04:57.730Z,4.55
2023-03-16T02:07:25.900Z,4.53
2023-03-16T02:09:55.366Z,5.13
2023-03-16T02:12:24.931Z,4.85
2023-03-16T02:14:55.912Z,4.43
2023-03-16T02:17:28.635Z,4.40
2023-03-16T02:20:19.367Z,4.95
2023-03-16T02:22:49.887Z,3.97
2023-03-16T02:25:19.398Z,4.43
2023-03-16T02:28:08.485Z,4.20
2023-03-16T02:30:42.937Z,4.30
2023-03-16T02:33:11.220Z,4.20
2023-03-16T02:35:39.090Z,4.18
2023-03-16T02:38:07.015Z,4.28
2023-03-16T02:40:44.235Z,4.10
2023-03-16T02:43:16.163Z,3.90
2023-03-16T02:45:52.771Z,4.40
2023-03-16T02:48:26.013Z,4.05
2023-03-16T02:50:55.782Z,4.03
2023-03-16T02:53:26.868Z,3.88
2023-03-16T02:55:56.552Z,4.10
2023-03-16T02:58:25.637Z,3.90
2023-03-16T03:00:57.356Z,4.93
2023-03-16T03:03:25.181Z,4.57
2023-03-16T03:05:54.760Z,4.00
2023-03-16T03:08:23.838Z,4.10
2023-03-16T03:10:55.837Z,3.97
2023-03-16T03:13:24.420Z,4.00
2023-03-16T03:15:53.336Z,4.40
2023-03-16T03:18:25.724Z,3.67
2023-03-16T03:20:54.024Z,4.05
2023-03-16T03:23:24.841Z,4.45
2023-03-16T03:25:57.619Z,3.90
2023-03-16T03:28:28.037Z,4.10
2023-03-16T03:30:56.322Z,3.70
2023-03-16T03:33:24.348Z,3.70
2023-03-16T03:35:58.185Z,4.40
2023-03-16T03:38:28.023Z,4.40
2023-03-16T03:41:02.207Z,4.00
2023-03-16T03:43:33.507Z,4.30
2023-03-16T03:46:02.276Z,4.13
2023-03-16T03:48:33.830Z,3.78
2023-03-16T03:51:02.135Z,3.90
2023-03-16T03:53:29.748Z,4.35
2023-03-16T03:56:16.852Z,3.90
2023-03-16T03:58:44.760Z,3.95
2023-03-16T04:01:16.159Z,4.18
2023-03-16T04:03:45.264Z,4.43
2023-03-16T04:06:15.074Z,4.50
2023-03-16T04:08:43.804Z,4.32
2023-03-16T04:11:15.524Z,4.53
2023-03-16T04:13:43.716Z,4.10
2023-03-16T04:16:16.695Z,3.92
2023-03-16T04:18:49.092Z,4.25
2023-03-16T04:21:18.164Z,4.68
2023-03-16T04:23:49.459Z,3.92
2023-03-16T04:26:18.101Z,4.53
2023-03-16T04:28:52.758Z,4.18
2023-03-16T04:31:23.972Z,4.25
2023-03-16T04:33:54.865Z,3.90
2023-03-16T04:36:27.002Z,4.18
2023-03-16T04:38:56.399Z,4.45
2023-03-16T04:41:24.532Z,4.40
2023-03-16T04:43:59.089Z,4.32
2023-03-16T04:46:27.187Z,4.28
2023-03-16T04:48:58.462Z,4.00
2023-03-16T04:51:28.046Z,4.40
2023-03-16T04:54:07.576Z,4.75
2023-03-16T04:56:37.462Z,4.32
2023-03-16T04:59:10.896Z,4.75
2023-03-16T05:01:48.733Z,4.13
2023-03-16T05:04:19.577Z,4.13
2023-03-16T05:06:52.791Z,4.40
2023-03-16T05:09:24.272Z,4.30
2023-03-16T05:11:54.154Z,4.32
2023-03-16T05:14:23.878Z,4.45
2023-03-16T05:17:22.676Z,3.78
2023-03-16T05:19:58.470Z,4.32
2023-03-16T05:22:29.677Z,4.18
2023-03-16T05:25:15.007Z,4.18
2023-03-16T05:27:46.052Z,4.15
2023-03-16T05:30:22.340Z,4.03
2023-03-16T05:32:53.007Z,4.25
2023-03-16T05:35:23.711Z,4.25
2023-03-16T05:37:54.384Z,4.35
2023-03-16T05:40:26.713Z,3.78
2023-03-16T05:43:24.519Z,4.07
2023-03-16T05:45:57.307Z,4.00
2023-03-16T05:48:26.601Z,4.45
2023-03-16T05:50:58.211Z,4.13
2023-03-16T05:53:29.978Z,3.90
2023-03-16T05:56:07.765Z,4.22
2023-03-16T05:58:40.226Z,4.18
2023-03-16T06:01:10.645Z,4.45
2023-03-16T06:03:39.173Z,4.35
2023-03-16T06:06:13.347Z,3.90
2023-03-16T06:08:53.417Z,4.20
2023-03-16T06:11:23.839Z,4.30
2023-03-16T06:13:58.005Z,4.20
2023-03-16T06:16:26.308Z,4.60
2023-03-16T06:18:56.259Z,4.13
2023-03-16T06:21:25.050Z,4.15
2023-03-16T06:23:56.158Z,4.60
2023-03-16T06:26:23.865Z,4.13
2023-03-16T06:28:53.270Z,4.43
2023-03-16T06:31:24.125Z,4.40
2023-03-16T06:33:53.063Z,4.50
2023-03-16T06:36:22.699Z,4.80
2023-03-16T06:38:55.124Z,4.15
2023-03-16T06:41:35.890Z,3.90
2023-03-16T06:44:03.892Z,4.40
2023-03-16T06:46:33.330Z,4.95
2023-03-16T06:49:04.979Z,4.55
2023-03-16T06:51:36.569Z,4.80
2023-03-16T06:54:04.601Z,4.38
2023-03-16T06:56:34.036Z,4.83
2023-03-16T06:59:02.133Z,4.95
2023-03-16T07:01:30.852Z,5.18
2023-03-16T07:03:58.604Z,5.15
2023-03-16T07:06:31.460Z,5.97
2023-03-16T07:09:01.611Z,5.28
2023-03-16T07:11:30.859Z,5.65
2023-03-16T07:13:59.293Z,5.20
2023-03-16T07:16:28.749Z,5.40
2023-03-16T07:18:58.976Z,5.68
2023-03-16T07:21:26.930Z,5.55
2023-03-16T07:23:55.999Z,5.55
2023-03-16T07:26:29.933Z,7.03
2023-03-16T07:29:00.361Z,6.07
2023-03-16T07:31:28.074Z,5.93
2023-03-16T07:33:58.416Z,5.30
2023-03-16T07:36:34.497Z,5.85
2023-03-16T07:39:04.923Z,6.25
2023-03-16T07:41:32.919Z,6.30
2023-03-16T07:44:19.561Z,6.25
2023-03-16T07:46:53.489Z,6.30
2023-03-16T07:49:25.538Z,5.85
2023-03-16T07:51:58.316Z,6.15
2023-03-16T07:54:33.962Z,5.85
2023-03-16T07:57:02.039Z,5.95
2023-03-16T07:59:35.819Z,5.50
2023-03-16T08:02:04.242Z,5.05
2023-03-16T08:04:32.835Z,5.13
2023-03-16T08:07:02.296Z,5.38
2023-03-16T08:09:43.495Z,5.50
2023-03-16T08:12:14.777Z,4.70
2023-03-16T08:14:42.679Z,5.10
2023-03-16T08:17:15.751Z,4.70
2023-03-16T08:19:46.296Z,5.70
2023-03-16T08:22:14.919Z,5.50
2023-03-16T08:24:46.290Z,5.78
2023-03-16T08:27:16.266Z,5.22
2023-03-16T08:29:53.401Z,5.15
2023-03-16T08:32:25.638Z,5.93
2023-03-16T08:34:54.102Z,6.57
2023-03-16T08:37:25.278Z,6.53
2023-03-16T08:39:54.726Z,6.47
2023-03-16T08:42:25.909Z,6.47
2023-03-16T08:45:01.423Z,6.22
2023-03-16T08:47:31.464Z,5.85
2023-03-16T08:50:00.522Z,6.00
2023-03-16T08:52:28.421Z,6.03
2023-03-16T08:55:03.503Z,6.40
2023-03-16T08:57:32.390Z,6.63
2023-03-16T09:00:00.279Z,6.97
2023-03-16T09:02:28.639Z,6.93
2023-03-16T09:04:58.617Z,5.97
2023-03-16T09:07:28.431Z,6.50
2023-03-16T09:09:58.878Z,6.60
2023-03-16T09:14:57.812Z,6.88
2023-03-16T09:17:29.540Z,6.13
2023-03-16T09:20:08.101Z,6.55
2023-03-16T09:22:43.740Z,6.00
2023-03-16T09:25:14.602Z,5.85
2023-03-16T09:27:42.898Z,5.00
2023-03-16T09:30:17.037Z,5.05
2023-03-16T09:32:45.573Z,5.10
2023-03-16T09:35:13.280Z,5.50
2023-03-16T09:37:45.523Z,5.22
2023-03-16T09:40:28.720Z,4.88
2023-03-16T09:42:56.242Z,4.57
2023-03-16T09:45:32.412Z,4.97
2023-03-16T09:48:03.229Z,4.72
2023-03-16T09:53:31.552Z,4.15
2023-03-16T09:56:02.066Z,4.35
2023-03-16T10:00:57.651Z,4.13
2023-03-16T10:03:29.955Z,5.18
2023-03-16T10:06:05.214Z,4.25
2023-03-16T10:08:33.223Z,4.43
2023-03-16T10:11:17.055Z,3.90
2023-03-16T10:13:44.801Z,4.20
2023-03-16T10:16:18.989Z,3.78
2023-03-16T10:18:48.856Z,4.03
2023-03-16T10:21:18.577Z,3.92
2023-03-16T10:23:49.482Z,3.50
2023-03-16T10:26:23.251Z,3.42
2023-03-16T10:28:53.111Z,3.40
2023-03-16T10:31:23.286Z,3.17
2023-03-16T10:34:03.484Z,3.50
2023-03-16T10:36:35.968Z,3.30
2023-03-16T10:39:14.424Z,3.22
2023-03-16T10:41:46.465Z,2.90
2023-03-16T10:44:18.743Z,3.45
2023-03-16T10:46:51.734Z,2.90
2023-03-16T10:49:25.953Z,2.72
2023-03-16T10:51:57.449Z,2.60
2023-03-16T10:54:54.593Z,2.72
2023-03-16T10:57:25.800Z,2.83
2023-03-16T10:59:55.259Z,2.90
2023-03-16T11:02:34.979Z,2.97
2023-03-16T11:05:16.127Z,2.40
2023-03-16T11:07:52.067Z,2.83
2023-03-16T11:10:36.255Z,2.65
2023-03-16T11:13:10.198Z,3.00
2023-03-16T11:15:40.696Z,3.20
2023-03-16T11:18:15.252Z,2.72
2023-03-16T11:20:44.269Z,2.53
2023-03-16T11:23:17.473Z,2.90
2023-03-16T11:25:47.953Z,2.53
2023-03-16T11:28:56.553Z,2.53
2023-03-16T11:31:42.947Z,2.85
2023-03-16T11:34:15.591Z,2.65
2023-03-16T11:36:57.141Z,3.38
2023-03-16T11:39:32.184Z,2.90
2023-03-16T11:42:00.335Z,2.70
2023-03-16T11:44:31.367Z,3.05
2023-03-16T11:47:07.697Z,2.58
2023-03-16T11:49:44.469Z,2.42
2023-03-16T11:52:17.886Z,3.03
2023-03-16T11:54:49.072Z,2.72
2023-03-16T11:57:51.630Z,3.00
2023-03-16T12:00:28.428Z,3.13
2023-03-16T12:03:15.009Z,2.90
2023-03-16T12:05:44.358Z,2.40
2023-03-16T12:08:32.575Z,2.70
2023-03-16T12:11:10.369Z,2.72
2023-03-16T12:13:56.669Z,2.60
2023-03-16T12:16:33.143Z,2.95
2023-03-16T12:19:09.096Z,2.90
2023-03-16T12:21:44.877Z,2.67
2023-03-16T12:24:16.273Z,2.65
2023-03-16T12:26:45.188Z,2.92
2023-03-16T12:29:23.571Z,2.35
2023-03-16T12:31:56.166Z,2.60
2023-03-16T12:34:31.203Z,2.47
2023-03-16T12:37:02.977Z,2.75
2023-03-16T12:39:31.288Z,2.47
2023-03-16T12:42:17.293Z,2.35
2023-03-16T12:44:46.254Z,2.08
2023-03-16T12:47:22.681Z,2.30
2023-03-16T12:49:52.420Z,2.25
2023-03-16T12:52:21.948Z,2.47
2023-03-16T12:54:55.517Z,2.30
2023-03-16T12:57:27.453Z,2.20
2023-03-16T13:00:00.086Z,2.60
2023-03-16T13:02:31.989Z,2.28
2023-03-16T13:05:02.107Z,2.63
2023-03-16T13:07:31.937Z,2.40
2023-03-16T13:10:12.561Z,2.13
2023-03-16T13:15:26.596Z,2.13
2023-03-16T13:18:10.583Z,2.38
2023-03-16T13:21:04.711Z,2.13
2023-03-16T13:23:55.046Z,2.92
2023-03-16T13:26:28.223Z,2.60
2023-03-16T13:28:56.810Z,2.35
2023-03-16T13:31:27.871Z,2.00
2023-03-16T13:34:00.501Z,2.30
2023-03-16T13:36:29.979Z,2.17
2023-03-16T13:39:17.502Z,2.15
2023-03-16T13:41:56.384Z,1.95
2023-03-16T13:44:27.504Z,2.40
2023-03-16T13:46:55.372Z,2.30
2023-03-16T13:49:24.023Z,2.03
2023-03-16T13:51:52.831Z,1.80
2023-03-16T13:54:25.353Z,1.52
2023-03-16T13:56:54.190Z,1.92
2023-03-16T13:59:23.190Z,2.08
2023-03-16T14:01:58.580Z,1.70
2023-03-16T14:04:29.329Z,2.10
2023-03-16T14:06:58.680Z,2.20
2023-03-16T14:09:31.862Z,1.90
2023-03-16T14:12:00.109Z,1.55
2023-03-16T14:14:32.325Z,2.50
2023-03-16T14:17:09.025Z,1.80
2023-03-16T14:19:42.537Z,1.60
2023-03-16T14:22:21.326Z,1.30
2023-03-16T14:24:54.698Z,1.83
2023-03-16T14:27:24.092Z,1.60
2023-03-16T14:29:54.208Z,1.65
2023-03-16T14:32:28.258Z,1.15
2023-03-16T14:35:25.911Z,1.40
2023-03-16T14:37:56.721Z,1.45
2023-03-16T14:40:33.500Z,1.88
2023-03-16T14:43:03.827Z,1.70
2023-03-16T14:45:34.297Z,1.88
2023-03-16T14:48:06.966Z,1.50
2023-03-16T14:50:35.365Z,2.10
2023-03-16T14:53:04.200Z,1.75
2023-03-16T14:55:32.335Z,1.52
2023-03-16T14:58:00.453Z,1.50
2023-03-16T15:00:29.406Z,1.45
2023-03-16T15:02:58.228Z,1.60
2023-03-16T15:05:34.023Z,1.55
2023-03-16T15:08:04.117Z,1.80
2023-03-16T15:10:34.703Z,1.55
2023-03-16T15:13:13.392Z,1.70
2023-03-16T15:15:47.440Z,1.60
2023-03-16T15:18:16.223Z,1.73
2023-03-16T15:20:45.651Z,1.50
2023-03-16T15:23:17.579Z,1.92
2023-03-16T15:25:46.030Z,1.50
2023-03-16T15:28:17.937Z,1.40
2023-03-16T15:30:46.415Z,1.40
2023-03-16T15:33:14.456Z,1.42
2023-03-16T15:35:42.414Z,1.40
2023-03-16T15:38:33.799Z,1.70
2023-03-16T15:41:02.035Z,1.95
2023-03-16T15:43:30.696Z,1.40
2023-03-16T15:46:00.196Z,1.35
2023-03-16T15:48:28.408Z,1.20
2023-03-16T15:50:56.963Z,1.50
2023-03-16T15:53:31.060Z,1.70
2023-03-16T15:56:03.183Z,1.70
2023-03-16T15:58:32.007Z,1.80
2023-03-16T16:01:00.621Z,1.42
2023-03-16T16:03:28.461Z,1.40
2023-03-16T16:05:56.311Z,1.73
2023-03-16T16:08:25.801Z,1.70
2023-03-16T16:10:53.955Z,1.65
2023-03-16T16:13:26.735Z,1.33
2023-03-16T16:15:59.274Z,1.70
2023-03-16T16:18:28.730Z,1.50
2023-03-16T16:21:00.208Z,1.48
2023-03-16T16:23:28.295Z,1.45
2023-03-16T16:25:57.605Z,1.40
2023-03-16T16:28:29.686Z,1.25
2023-03-16T16:30:57.839Z,1.58
2023-03-16T16:33:26.784Z,1.52
2023-03-16T16:35:55.716Z,1.73
2023-03-16T16:38:24.316Z,1.38
2023-03-16T16:40:53.143Z,1.80
2023-03-16T16:43:38.976Z,1.30
2023-03-16T16:46:08.325Z,1.50
2023-03-16T16:48:39.797Z,1.60
2023-03-16T16:51:07.620Z,1.50
2023-03-16T16:53:36.175Z,1.75
2023-03-16T16:56:04.000Z,1.25
2023-03-16T16:58:32.512Z,1.38
2023-03-16T17:01:01.221Z,1.40
2023-03-16T17:03:29.821Z,1.25
2023-03-16T17:05:58.882Z,1.55
2023-03-16T17:08:27.783Z,1.08
2023-03-16T17:10:56.126Z,1.35
2023-03-16T17:13:33.914Z,1.25
2023-03-16T17:16:01.698Z,1.23
2023-03-16T17:18:30.062Z,1.30
2023-03-16T17:20:58.301Z,1.20
2023-03-16T17:23:29.767Z,1.70
2023-03-16T17:25:58.709Z,1.30
2023-03-16T17:28:27.875Z,1.38
2023-03-16T17:30:56.057Z,1.23
2023-03-16T17:33:26.955Z,1.33
2023-03-16T17:35:54.597Z,1.20
2023-03-16T17:38:25.368Z,1.02
2023-03-16T17:40:56.635Z,1.30
2023-03-16T17:43:31.946Z,1.33
2023-03-16T17:46:00.352Z,1.20
2023-03-16T17:48:28.394Z,1.30
2023-03-16T17:50:56.747Z,1.25
2023-03-16T17:53:24.908Z,1.00
2023-03-16T17:55:54.360Z,1.58
2023-03-16T17:58:27.962Z,1.02
2023-03-16T18:00:55.553Z,1.20
2023-03-16T18:03:25.334Z,1.27
2023-03-16T18:05:53.332Z,1.30
2023-03-16T18:08:26.191Z,1.60
2023-03-16T18:10:55.829Z,1.60
2023-03-16T18:13:28.676Z,1.37
2023-03-16T18:15:57.451Z,1.20
2023-03-16T18:18:28.204Z,1.40
2023-03-16T18:20:57.158Z,1.30
2023-03-16T18:23:26.416Z,1.63
2023-03-16T18:25:55.919Z,1.48
2023-03-16T18:28:23.592Z,1.42
2023-03-16T18:30:53.738Z,1.42
2023-03-16T18:33:25.213Z,1.20
2023-03-16T18:35:54.482Z,1.73
2023-03-16T18:38:22.926Z,1.55
2023-03-16T18:40:51.221Z,1.63
2023-03-16T18:43:19.067Z,2.15
2023-03-16T18:45:47.151Z,1.98
2023-03-16T18:48:27.113Z,1.90
2023-03-16T18:50:54.680Z,1.90
2023-03-16T18:53:25.944Z,2.58
2023-03-16T18:55:57.243Z,2.15
2023-03-16T18:58:25.657Z,1.90
2023-03-16T19:01:00.741Z,2.30
2023-03-16T19:03:29.907Z,2.30
2023-03-16T19:05:58.439Z,2.20
2023-03-16T19:08:27.361Z,2.50
2023-03-16T19:10:56.939Z,2.30
2023-03-16T19:13:26.206Z,2.40
2023-03-16T19:15:55.327Z,2.60
2023-03-16T19:18:26.365Z,2.65
2023-03-16T19:20:54.743Z,2.65
2023-03-16T19:23:25.959Z,2.40
2023-03-16T19:25:54.930Z,2.95
2023-03-16T19:28:34.109Z,2.50
2023-03-16T19:31:08.513Z,3.25
2023-03-16T19:33:36.705Z,3.03
2023-03-16T19:36:04.880Z,2.50
2023-03-16T19:38:34.147Z,2.67
2023-03-16T19:41:02.096Z,2.83
2023-03-16T19:43:30.060Z,2.80
2023-03-16T19:45:57.949Z,2.55
2023-03-16T19:48:33.033Z,2.88
2023-03-16T19:51:01.172Z,2.47
2023-03-16T19:53:28.856Z,2.60
2023-03-16T19:55:56.837Z,2.65
2023-03-16T19:58:51.465Z,2.67
2023-03-16T20:01:22.479Z,2.47
2023-03-16T20:03:52.331Z,2.28
2023-03-16T20:06:24.725Z,2.87
2023-03-16T20:08:53.003Z,2.80
2023-03-16T20:11:23.308Z,2.90
2023-03-16T20:13:51.328Z,2.30
2023-03-16T20:16:23.881Z,2.60
2023-03-16T20:18:55.931Z,2.88
2023-03-16T20:21:23.517Z,2.53
2023-03-16T20:23:52.480Z,2.80
2023-03-16T20:26:29.111Z,2.63
2023-03-16T20:28:57.532Z,2.70
2023-03-16T20:31:27.176Z,2.90
2023-03-16T20:33:55.109Z,2.70
2023-03-16T20:36:27.269Z,2.97
2023-03-16T20:38:54.963Z,3.47
2023-03-16T20:41:26.341Z,3.90
2023-03-16T20:43:55.197Z,3.70
2023-03-16T20:46:26.243Z,4.32
2023-03-16T20:48:53.862Z,5.00
2023-03-16T20:51:22.429Z,4.47
2023-03-16T20:53:51.366Z,5.90
2023-03-16T20:56:28.670Z,5.15
2023-03-16T20:58:58.060Z,7.32
2023-03-16T21:01:26.675Z,5.57
2023-03-16T21:03:56.614Z,4.22
2023-03-16T21:06:30.312Z,5.07
2023-03-16T21:08:59.672Z,6.43
2023-03-16T21:11:32.875Z,6.47
2023-03-16T21:14:01.537Z,4.53
2023-03-16T21:16:34.838Z,4.28
2023-03-16T21:19:02.910Z,4.50
2023-03-16T21:21:31.607Z,4.50
2023-03-16T21:24:00.583Z,4.78
2023-03-16T21:26:32.205Z,4.60
2023-03-16T21:31:28.000Z,5.35
2023-03-16T21:33:56.336Z,4.68
2023-03-16T21:36:28.400Z,4.82
2023-03-16T21:38:57.588Z,5.10
2023-03-16T21:41:26.114Z,4.80
2023-03-16T21:43:54.596Z,6.07
2023-03-16T21:46:25.838Z,5.18
2023-03-16T21:48:55.233Z,5.47
2023-03-16T21:51:25.335Z,5.80
2023-03-16T21:53:53.754Z,5.80
2023-03-16T21:56:23.853Z,5.10
2023-03-16T21:58:52.404Z,5.57
2023-03-16T22:01:25.527Z,5.32
2023-03-16T22:03:57.964Z,4.68
2023-03-16T22:06:31.325Z,5.07
2023-03-16T22:08:59.893Z,5.28
2023-03-16T22:11:28.867Z,5.38
2023-03-16T22:14:00.095Z,5.07
2023-03-16T22:16:30.867Z,4.97
2023-03-16T22:18:58.879Z,4.60
2023-03-16T22:21:37.791Z,5.43
2023-03-16T22:24:07.240Z,4.97
2023-03-16T22:26:34.874Z,4.93
2023-03-16T22:29:02.941Z,4.93
2023-03-16T22:31:39.125Z,4.70
2023-03-16T22:34:07.429Z,4.65
2023-03-16T22:36:35.475Z,4.47
2023-03-16T22:39:05.448Z,4.93
2023-03-16T22:41:33.183Z,4.40
2023-03-16T22:44:01.742Z,4.68
2023-03-16T22:46:29.832Z,4.78
2023-03-16T22:48:57.620Z,5.00
2023-03-16T22:51:36.724Z,4.70
2023-03-16T22:54:05.822Z,4.57
2023-03-16T22:56:33.597Z,4.07
2023-03-16T22:59:09.147Z,4.93
2023-03-16T23:01:41.472Z,4.40
2023-03-16T23:04:17.666Z,4.30
2023-03-16T23:06:53.240Z,4.45
2023-03-16T23:09:22.883Z,4.43
2023-03-16T23:11:54.039Z,4.60
2023-03-16T23:14:25.932Z,4.32
2023-03-16T23:16:54.131Z,4.82
2023-03-16T23:19:27.940Z,5.38
2023-03-16T23:21:56.169Z,4.88
2023-03-16T23:24:24.272Z,4.90
2023-03-16T23:26:52.995Z,4.72
2023-03-16T23:29:22.599Z,4.68
2023-03-16T23:31:52.257Z,4.30
2023-03-16T23:34:22.960Z,4.10
2023-03-16T23:36:55.024Z,4.53
2023-03-16T23:39:25.264Z,4.95
2023-03-16T23:41:53.956Z,4.32
2023-03-16T23:44:26.675Z,4.15
2023-03-16T23:46:55.108Z,3.60
2023-03-16T23:49:28.499Z,4.55
2023-03-16T23:51:57.914Z,4.35
2023-03-16T23:54:27.690Z,4.00
2023-03-16T23:56:55.826Z,4.10
2023-03-16T23:59:23.907Z,4.18
